sensor_id;sensor_type;location;lat;lon;timestamp;temperature;humidity
23291;DHT22;11814;44.686;10.842;2023-02-18T00:01:14;7.70;99.90
23291;DHT22;11814;44.686;10.842;2023-02-18T00:03:40;7.70;99.90
23291;DHT22;11814;44.686;10.842;2023-02-18T00:06:14;7.70;99.90
23291;DHT22;11814;44.686;10.842;2023-02-18T00:08:41;7.60;99.90
23291;DHT22;11814;44.686;10.842;2023-02-18T00:11:08;7.50;99.90
23291;DHT22;11814;44.686;10.842;2023-02-18T00:13:34;7.50;99.90
23291;DHT22;11814;44.686;10.842;2023-02-18T00:16:05;7.40;99.90
23291;DHT22;11814;44.686;10.842;2023-02-18T00:18:31;7.30;99.90
23291;DHT22;11814;44.686;10.842;2023-02-18T00:20:57;7.20;99.90
23291;DHT22;11814;44.686;10.842;2023-02-18T00:23:23;7.20;99.90
23291;DHT22;11814;44.686;10.842;2023-02-18T00:25:57;7.30;99.90
23291;DHT22;11814;44.686;10.842;2023-02-18T00:28:23;7.30;99.90
23291;DHT22;11814;44.686;10.842;2023-02-18T00:30:48;7.30;99.90
23291;DHT22;11814;44.686;10.842;2023-02-18T00:33:14;7.30;99.90
23291;DHT22;11814;44.686;10.842;2023-02-18T00:35:40;7.30;99.90
23291;DHT22;11814;44.686;10.842;2023-02-18T00:38:06;7.20;99.90
23291;DHT22;11814;44.686;10.842;2023-02-18T00:40:31;7.20;99.90
23291;DHT22;11814;44.686;10.842;2023-02-18T00:42:57;7.10;99.90
23291;DHT22;11814;44.686;10.842;2023-02-18T00:45:23;7.20;99.90
23291;DHT22;11814;44.686;10.842;2023-02-18T00:47:48;7.20;99.90
23291;DHT22;11814;44.686;10.842;2023-02-18T00:50:14;7.20;99.90
23291;DHT22;11814;44.686;10.842;2023-02-18T00:52:40;7.30;99.90
23291;DHT22;11814;44.686;10.842;2023-02-18T00:55:06;7.40;99.90
23291;DHT22;11814;44.686;10.842;2023-02-18T00:57:31;7.30;99.90
23291;DHT22;11814;44.686;10.842;2023-02-18T00:59:57;7.30;99.90
23291;DHT22;11814;44.686;10.842;2023-02-18T01:02:23;7.40;99.90
23291;DHT22;11814;44.686;10.842;2023-02-18T01:04:49;7.40;99.90
23291;DHT22;11814;44.686;10.842;2023-02-18T01:07:14;7.40;99.90
23291;DHT22;11814;44.686;10.842;2023-02-18T01:09:40;7.40;99.90
23291;DHT22;11814;44.686;10.842;2023-02-18T01:12:06;7.40;99.90
23291;DHT22;11814;44.686;10.842;2023-02-18T01:14:32;7.30;99.90
23291;DHT22;11814;44.686;10.842;2023-02-18T01:16:57;7.30;99.90
23291;DHT22;11814;44.686;10.842;2023-02-18T01:19:23;7.30;99.90
23291;DHT22;11814;44.686;10.842;2023-02-18T01:21:49;7.30;99.90
23291;DHT22;11814;44.686;10.842;2023-02-18T01:24:14;7.20;99.90
23291;DHT22;11814;44.686;10.842;2023-02-18T01:26:40;7.20;99.90
23291;DHT22;11814;44.686;10.842;2023-02-18T01:29:06;7.10;99.90
23291;DHT22;11814;44.686;10.842;2023-02-18T01:31:31;6.90;99.90
23291;DHT22;11814;44.686;10.842;2023-02-18T01:33:57;6.90;99.90
23291;DHT22;11814;44.686;10.842;2023-02-18T01:36:23;6.80;99.90
23291;DHT22;11814;44.686;10.842;2023-02-18T01:38:49;6.80;99.90
23291;DHT22;11814;44.686;10.842;2023-02-18T01:41:14;6.80;99.90
23291;DHT22;11814;44.686;10.842;2023-02-18T01:43:40;6.70;99.90
23291;DHT22;11814;44.686;10.842;2023-02-18T01:46:20;6.60;99.90
23291;DHT22;11814;44.686;10.842;2023-02-18T01:56:44;6.40;99.90
23291;DHT22;11814;44.686;10.842;2023-02-18T01:59:25;6.40;99.90
23291;DHT22;11814;44.686;10.842;2023-02-18T02:01:52;6.40;99.90
23291;DHT22;11814;44.686;10.842;2023-02-18T02:04:18;6.50;99.90
23291;DHT22;11814;44.686;10.842;2023-02-18T02:06:44;6.50;99.90
23291;DHT22;11814;44.686;10.842;2023-02-18T02:09:14;6.50;99.90
23291;DHT22;11814;44.686;10.842;2023-02-18T02:17:07;6.60;99.90
23291;DHT22;11814;44.686;10.842;2023-02-18T02:25:15;6.50;99.90
23291;DHT22;11814;44.686;10.842;2023-02-18T02:27:45;6.50;99.90
23291;DHT22;11814;44.686;10.842;2023-02-18T02:33:35;6.50;99.90
23291;DHT22;11814;44.686;10.842;2023-02-18T02:36:15;6.40;99.90
23291;DHT22;11814;44.686;10.842;2023-02-18T02:39:06;6.40;99.90
23291;DHT22;11814;44.686;10.842;2023-02-18T02:47:01;6.30;99.90
23291;DHT22;11814;44.686;10.842;2023-02-18T02:50:08;6.30;99.90
23291;DHT22;11814;44.686;10.842;2023-02-18T02:52:42;6.30;99.90
23291;DHT22;11814;44.686;10.842;2023-02-18T02:55:10;6.30;99.90
23291;DHT22;11814;44.686;10.842;2023-02-18T03:00:05;6.10;99.90
23291;DHT22;11814;44.686;10.842;2023-02-18T03:08:46;6.10;99.90
23291;DHT22;11814;44.686;10.842;2023-02-18T03:11:15;6.00;99.90
23291;DHT22;11814;44.686;10.842;2023-02-18T03:13:56;6.00;99.90
23291;DHT22;11814;44.686;10.842;2023-02-18T03:16:32;6.00;99.90
23291;DHT22;11814;44.686;10.842;2023-02-18T03:24:45;6.10;99.90
23291;DHT22;11814;44.686;10.842;2023-02-18T03:27:22;6.00;99.90
23291;DHT22;11814;44.686;10.842;2023-02-18T03:30:04;6.00;99.90
23291;DHT22;11814;44.686;10.842;2023-02-18T03:32:32;6.00;99.90
23291;DHT22;11814;44.686;10.842;2023-02-18T03:35:06;6.00;99.90
23291;DHT22;11814;44.686;10.842;2023-02-18T03:37:36;6.00;99.90
23291;DHT22;11814;44.686;10.842;2023-02-18T03:40:04;6.00;99.90
23291;DHT22;11814;44.686;10.842;2023-02-18T03:42:31;6.00;99.90
23291;DHT22;11814;44.686;10.842;2023-02-18T03:44:57;6.00;99.90
23291;DHT22;11814;44.686;10.842;2023-02-18T03:47:24;6.00;99.90
23291;DHT22;11814;44.686;10.842;2023-02-18T03:49:50;5.90;99.90
23291;DHT22;11814;44.686;10.842;2023-02-18T03:52:16;5.90;99.90
23291;DHT22;11814;44.686;10.842;2023-02-18T03:54:41;5.90;99.90
23291;DHT22;11814;44.686;10.842;2023-02-18T03:57:08;5.80;99.90
23291;DHT22;11814;44.686;10.842;2023-02-18T03:59:34;5.80;99.90
23291;DHT22;11814;44.686;10.842;2023-02-18T04:01:59;5.80;99.90
23291;DHT22;11814;44.686;10.842;2023-02-18T04:04:25;5.80;99.90
23291;DHT22;11814;44.686;10.842;2023-02-18T04:06:51;5.80;99.90
23291;DHT22;11814;44.686;10.842;2023-02-18T04:09:17;5.80;99.90
23291;DHT22;11814;44.686;10.842;2023-02-18T04:11:42;5.80;99.90
23291;DHT22;11814;44.686;10.842;2023-02-18T04:14:09;5.70;99.90
23291;DHT22;11814;44.686;10.842;2023-02-18T04:16:37;5.80;99.90
23291;DHT22;11814;44.686;10.842;2023-02-18T04:19:03;5.70;99.90
23291;DHT22;11814;44.686;10.842;2023-02-18T04:21:29;5.70;99.90
23291;DHT22;11814;44.686;10.842;2023-02-18T04:23:54;5.60;99.90
23291;DHT22;11814;44.686;10.842;2023-02-18T04:26:20;5.60;99.90
23291;DHT22;11814;44.686;10.842;2023-02-18T04:28:46;5.60;99.90
23291;DHT22;11814;44.686;10.842;2023-02-18T04:31:11;5.60;99.90
23291;DHT22;11814;44.686;10.842;2023-02-18T04:33:37;5.70;99.90
23291;DHT22;11814;44.686;10.842;2023-02-18T04:36:03;5.70;99.90
23291;DHT22;11814;44.686;10.842;2023-02-18T04:38:29;5.70;99.90
23291;DHT22;11814;44.686;10.842;2023-02-18T04:40:55;5.70;99.90
23291;DHT22;11814;44.686;10.842;2023-02-18T04:43:20;5.70;99.90
23291;DHT22;11814;44.686;10.842;2023-02-18T04:45:46;5.70;99.90
23291;DHT22;11814;44.686;10.842;2023-02-18T04:48:12;5.70;99.90
23291;DHT22;11814;44.686;10.842;2023-02-18T04:50:38;5.70;99.90
23291;DHT22;11814;44.686;10.842;2023-02-18T04:53:03;5.70;99.90
23291;DHT22;11814;44.686;10.842;2023-02-18T04:55:29;5.70;99.90
23291;DHT22;11814;44.686;10.842;2023-02-18T04:57:55;5.60;99.90
23291;DHT22;11814;44.686;10.842;2023-02-18T05:00:21;5.60;99.90
23291;DHT22;11814;44.686;10.842;2023-02-18T05:02:47;5.70;99.90
23291;DHT22;11814;44.686;10.842;2023-02-18T05:05:13;5.70;99.90
23291;DHT22;11814;44.686;10.842;2023-02-18T05:07:39;5.70;99.90
23291;DHT22;11814;44.686;10.842;2023-02-18T05:10:09;5.70;99.90
23291;DHT22;11814;44.686;10.842;2023-02-18T05:12:35;5.70;99.90
23291;DHT22;11814;44.686;10.842;2023-02-18T05:15:01;5.80;99.90
23291;DHT22;11814;44.686;10.842;2023-02-18T05:17:27;5.70;99.90
23291;DHT22;11814;44.686;10.842;2023-02-18T05:19:52;5.80;99.90
23291;DHT22;11814;44.686;10.842;2023-02-18T05:22:18;5.80;99.90
23291;DHT22;11814;44.686;10.842;2023-02-18T05:24:44;5.80;99.90
23291;DHT22;11814;44.686;10.842;2023-02-18T05:27:09;5.70;99.90
23291;DHT22;11814;44.686;10.842;2023-02-18T05:29:35;5.70;99.90
23291;DHT22;11814;44.686;10.842;2023-02-18T05:32:01;5.60;99.90
23291;DHT22;11814;44.686;10.842;2023-02-18T05:34:27;5.70;99.90
23291;DHT22;11814;44.686;10.842;2023-02-18T05:36:52;5.70;99.90
23291;DHT22;11814;44.686;10.842;2023-02-18T05:39:18;5.60;99.90
23291;DHT22;11814;44.686;10.842;2023-02-18T05:41:44;5.80;99.90
23291;DHT22;11814;44.686;10.842;2023-02-18T05:44:09;5.80;99.90
23291;DHT22;11814;44.686;10.842;2023-02-18T05:46:54;5.70;99.90
23291;DHT22;11814;44.686;10.842;2023-02-18T05:49:19;5.80;99.90
23291;DHT22;11814;44.686;10.842;2023-02-18T05:51:45;5.70;99.90
23291;DHT22;11814;44.686;10.842;2023-02-18T05:54:11;5.80;99.90
23291;DHT22;11814;44.686;10.842;2023-02-18T05:56:36;5.80;99.90
23291;DHT22;11814;44.686;10.842;2023-02-18T05:59:02;5.80;99.90
23291;DHT22;11814;44.686;10.842;2023-02-18T06:01:28;5.80;99.90
23291;DHT22;11814;44.686;10.842;2023-02-18T06:03:54;5.80;99.90
23291;DHT22;11814;44.686;10.842;2023-02-18T06:06:19;5.70;99.90
23291;DHT22;11814;44.686;10.842;2023-02-18T06:08:45;5.70;99.90
23291;DHT22;11814;44.686;10.842;2023-02-18T06:11:11;5.70;99.90
23291;DHT22;11814;44.686;10.842;2023-02-18T06:13:36;5.70;99.90
23291;DHT22;11814;44.686;10.842;2023-02-18T06:16:02;5.80;99.90
23291;DHT22;11814;44.686;10.842;2023-02-18T06:18:28;5.80;99.90
23291;DHT22;11814;44.686;10.842;2023-02-18T06:20:54;5.80;99.90
23291;DHT22;11814;44.686;10.842;2023-02-18T06:23:20;5.80;99.90
23291;DHT22;11814;44.686;10.842;2023-02-18T06:25:48;5.70;99.90
23291;DHT22;11814;44.686;10.842;2023-02-18T06:28:15;5.80;99.90
23291;DHT22;11814;44.686;10.842;2023-02-18T06:30:41;5.80;99.90
23291;DHT22;11814;44.686;10.842;2023-02-18T06:33:06;5.80;99.90
23291;DHT22;11814;44.686;10.842;2023-02-18T06:35:32;5.80;99.90
23291;DHT22;11814;44.686;10.842;2023-02-18T06:37:59;5.90;99.90
23291;DHT22;11814;44.686;10.842;2023-02-18T06:40:25;5.80;99.90
23291;DHT22;11814;44.686;10.842;2023-02-18T06:42:51;5.80;99.90
23291;DHT22;11814;44.686;10.842;2023-02-18T06:45:17;5.90;99.90
23291;DHT22;11814;44.686;10.842;2023-02-18T06:47:43;5.80;99.90
23291;DHT22;11814;44.686;10.842;2023-02-18T06:50:09;5.80;99.90
23291;DHT22;11814;44.686;10.842;2023-02-18T06:52:35;5.80;99.90
23291;DHT22;11814;44.686;10.842;2023-02-18T06:55:04;5.80;99.90
23291;DHT22;11814;44.686;10.842;2023-02-18T06:57:30;5.90;99.90
23291;DHT22;11814;44.686;10.842;2023-02-18T06:59:56;5.90;99.90
23291;DHT22;11814;44.686;10.842;2023-02-18T07:02:21;6.00;99.90
23291;DHT22;11814;44.686;10.842;2023-02-18T07:04:47;6.10;99.90
23291;DHT22;11814;44.686;10.842;2023-02-18T07:07:13;6.20;99.90
23291;DHT22;11814;44.686;10.842;2023-02-18T07:09:39;6.40;99.90
23291;DHT22;11814;44.686;10.842;2023-02-18T07:12:05;6.40;99.90
23291;DHT22;11814;44.686;10.842;2023-02-18T07:14:31;6.50;99.90
23291;DHT22;11814;44.686;10.842;2023-02-18T07:16:56;6.60;99.90
23291;DHT22;11814;44.686;10.842;2023-02-18T07:19:22;6.70;99.90
23291;DHT22;11814;44.686;10.842;2023-02-18T07:21:48;6.70;99.90
23291;DHT22;11814;44.686;10.842;2023-02-18T07:24:14;6.80;99.90
23291;DHT22;11814;44.686;10.842;2023-02-18T07:26:40;6.90;99.90
23291;DHT22;11814;44.686;10.842;2023-02-18T07:29:05;7.00;99.90
23291;DHT22;11814;44.686;10.842;2023-02-18T07:31:31;7.10;99.90
23291;DHT22;11814;44.686;10.842;2023-02-18T07:33:57;7.10;99.90
23291;DHT22;11814;44.686;10.842;2023-02-18T07:36:22;7.10;99.90
23291;DHT22;11814;44.686;10.842;2023-02-18T07:38:48;7.20;99.90
23291;DHT22;11814;44.686;10.842;2023-02-18T07:41:19;7.20;99.90
23291;DHT22;11814;44.686;10.842;2023-02-18T07:43:46;7.30;99.90
23291;DHT22;11814;44.686;10.842;2023-02-18T07:46:12;7.40;99.90
23291;DHT22;11814;44.686;10.842;2023-02-18T07:48:37;7.50;99.90
23291;DHT22;11814;44.686;10.842;2023-02-18T07:51:08;7.70;99.90
23291;DHT22;11814;44.686;10.842;2023-02-18T07:53:34;7.90;99.90
23291;DHT22;11814;44.686;10.842;2023-02-18T07:56:00;8.30;99.90
23291;DHT22;11814;44.686;10.842;2023-02-18T07:58:32;8.60;99.90
23291;DHT22;11814;44.686;10.842;2023-02-18T08:00:58;8.80;99.90
23291;DHT22;11814;44.686;10.842;2023-02-18T08:03:30;9.10;99.90
23291;DHT22;11814;44.686;10.842;2023-02-18T08:05:56;9.50;99.90
23291;DHT22;11814;44.686;10.842;2023-02-18T08:08:25;9.60;99.90
23291;DHT22;11814;44.686;10.842;2023-02-18T08:10:53;9.50;99.90
23291;DHT22;11814;44.686;10.842;2023-02-18T08:13:19;9.60;99.90
23291;DHT22;11814;44.686;10.842;2023-02-18T08:15:44;9.80;99.90
23291;DHT22;11814;44.686;10.842;2023-02-18T08:18:15;10.00;99.90
23291;DHT22;11814;44.686;10.842;2023-02-18T08:20:41;10.20;99.70
23291;DHT22;11814;44.686;10.842;2023-02-18T08:23:08;10.30;99.40
23291;DHT22;11814;44.686;10.842;2023-02-18T08:25:35;10.50;98.50
23291;DHT22;11814;44.686;10.842;2023-02-18T08:28:01;10.70;97.90
23291;DHT22;11814;44.686;10.842;2023-02-18T08:30:27;11.00;97.20
23291;DHT22;11814;44.686;10.842;2023-02-18T08:32:52;11.40;96.60
23291;DHT22;11814;44.686;10.842;2023-02-18T08:35:18;11.80;95.40
23291;DHT22;11814;44.686;10.842;2023-02-18T08:37:44;11.90;93.80
23291;DHT22;11814;44.686;10.842;2023-02-18T08:40:11;11.80;92.90
23291;DHT22;11814;44.686;10.842;2023-02-18T08:42:37;11.80;92.70
23291;DHT22;11814;44.686;10.842;2023-02-18T08:45:04;11.80;92.20
23291;DHT22;11814;44.686;10.842;2023-02-18T08:47:31;11.70;92.00
23291;DHT22;11814;44.686;10.842;2023-02-18T08:49:57;11.70;92.30
23291;DHT22;11814;44.686;10.842;2023-02-18T08:52:23;11.90;92.30
23291;DHT22;11814;44.686;10.842;2023-02-18T08:54:48;12.20;91.80
23291;DHT22;11814;44.686;10.842;2023-02-18T08:57:14;12.10;91.30
23291;DHT22;11814;44.686;10.842;2023-02-18T08:59:40;12.10;91.20
23291;DHT22;11814;44.686;10.842;2023-02-18T09:02:06;12.10;91.40
23291;DHT22;11814;44.686;10.842;2023-02-18T09:04:32;12.20;91.80
23291;DHT22;11814;44.686;10.842;2023-02-18T09:06:58;12.30;91.80
23291;DHT22;11814;44.686;10.842;2023-02-18T09:09:24;12.50;91.80
23291;DHT22;11814;44.686;10.842;2023-02-18T09:11:50;13.00;92.20
23291;DHT22;11814;44.686;10.842;2023-02-18T09:14:15;13.70;92.00
23291;DHT22;11814;44.686;10.842;2023-02-18T09:16:41;14.30;91.50
23291;DHT22;11814;44.686;10.842;2023-02-18T09:19:07;15.20;91.20
23291;DHT22;11814;44.686;10.842;2023-02-18T09:21:33;16.20;90.00
23291;DHT22;11814;44.686;10.842;2023-02-18T09:23:59;17.30;86.80
23291;DHT22;11814;44.686;10.842;2023-02-18T09:26:26;18.20;81.60
23291;DHT22;11814;44.686;10.842;2023-02-18T09:28:53;18.80;77.60
23291;DHT22;11814;44.686;10.842;2023-02-18T09:31:22;19.30;74.10
23291;DHT22;11814;44.686;10.842;2023-02-18T09:33:51;19.80;71.70
23291;DHT22;11814;44.686;10.842;2023-02-18T09:36:18;20.20;70.20
23291;DHT22;11814;44.686;10.842;2023-02-18T09:38:45;20.60;68.40
23291;DHT22;11814;44.686;10.842;2023-02-18T09:41:23;20.90;66.60
23291;DHT22;11814;44.686;10.842;2023-02-18T09:44:03;21.20;64.40
23291;DHT22;11814;44.686;10.842;2023-02-18T09:46:36;21.10;62.80
23291;DHT22;11814;44.686;10.842;2023-02-18T09:49:19;21.00;61.70
23291;DHT22;11814;44.686;10.842;2023-02-18T09:51:46;20.70;61.40
23291;DHT22;11814;44.686;10.842;2023-02-18T09:54:15;20.10;61.60
23291;DHT22;11814;44.686;10.842;2023-02-18T09:56:43;19.50;62.60
23291;DHT22;11814;44.686;10.842;2023-02-18T09:59:19;19.10;63.40
23291;DHT22;11814;44.686;10.842;2023-02-18T10:01:48;18.70;64.10
23291;DHT22;11814;44.686;10.842;2023-02-18T10:04:29;18.40;64.80
23291;DHT22;11814;44.686;10.842;2023-02-18T10:06:57;18.10;65.70
23291;DHT22;11814;44.686;10.842;2023-02-18T10:09:35;17.80;66.40
23291;DHT22;11814;44.686;10.842;2023-02-18T10:12:16;17.70;67.30
23291;DHT22;11814;44.686;10.842;2023-02-18T10:14:47;17.60;67.70
23291;DHT22;11814;44.686;10.842;2023-02-18T10:17:14;17.70;68.40
23291;DHT22;11814;44.686;10.842;2023-02-18T10:19:43;17.80;68.70
23291;DHT22;11814;44.686;10.842;2023-02-18T10:22:12;17.70;68.60
23291;DHT22;11814;44.686;10.842;2023-02-18T10:25:01;17.70;68.60
23291;DHT22;11814;44.686;10.842;2023-02-18T10:27:34;17.70;69.00
23291;DHT22;11814;44.686;10.842;2023-02-18T10:32:55;17.70;69.30
23291;DHT22;11814;44.686;10.842;2023-02-18T10:35:39;17.60;69.70
23291;DHT22;11814;44.686;10.842;2023-02-18T10:47:02;17.50;71.00
23291;DHT22;11814;44.686;10.842;2023-02-18T10:52:08;17.80;70.60
23291;DHT22;11814;44.686;10.842;2023-02-18T10:55:08;17.70;69.80
23291;DHT22;11814;44.686;10.842;2023-02-18T10:57:34;17.70;70.50
23291;DHT22;11814;44.686;10.842;2023-02-18T11:00:33;17.90;70.30
23291;DHT22;11814;44.686;10.842;2023-02-18T11:03:18;17.80;69.70
23291;DHT22;11814;44.686;10.842;2023-02-18T11:05:45;17.90;69.80
23291;DHT22;11814;44.686;10.842;2023-02-18T11:08:23;18.00;70.10
23291;DHT22;11814;44.686;10.842;2023-02-18T11:10:50;18.00;70.00
23291;DHT22;11814;44.686;10.842;2023-02-18T11:13:25;18.00;69.60
23291;DHT22;11814;44.686;10.842;2023-02-18T11:16:00;17.60;69.20
23291;DHT22;11814;44.686;10.842;2023-02-18T11:18:37;17.60;69.80
23291;DHT22;11814;44.686;10.842;2023-02-18T11:21:27;17.60;69.90
23291;DHT22;11814;44.686;10.842;2023-02-18T11:23:54;17.70;69.80
23291;DHT22;11814;44.686;10.842;2023-02-18T11:26:29;17.90;69.60
23291;DHT22;11814;44.686;10.842;2023-02-18T11:29:05;18.00;69.60
23291;DHT22;11814;44.686;10.842;2023-02-18T11:31:58;18.10;69.60
23291;DHT22;11814;44.686;10.842;2023-02-18T11:34:32;18.10;69.30
23291;DHT22;11814;44.686;10.842;2023-02-18T11:37:12;18.20;69.00
23291;DHT22;11814;44.686;10.842;2023-02-18T11:39:43;18.20;68.50
23291;DHT22;11814;44.686;10.842;2023-02-18T11:42:13;18.10;68.50
23291;DHT22;11814;44.686;10.842;2023-02-18T11:44:56;18.30;68.60
23291;DHT22;11814;44.686;10.842;2023-02-18T11:47:32;18.40;68.10
23291;DHT22;11814;44.686;10.842;2023-02-18T11:50:21;18.50;67.80
23291;DHT22;11814;44.686;10.842;2023-02-18T11:52:49;18.40;67.60
23291;DHT22;11814;44.686;10.842;2023-02-18T11:55:20;18.30;67.80
23291;DHT22;11814;44.686;10.842;2023-02-18T11:57:58;18.20;67.80
23291;DHT22;11814;44.686;10.842;2023-02-18T12:00:46;18.20;68.30
23291;DHT22;11814;44.686;10.842;2023-02-18T12:05:47;18.20;68.30
23291;DHT22;11814;44.686;10.842;2023-02-18T12:08:19;18.20;68.40
23291;DHT22;11814;44.686;10.842;2023-02-18T12:11:09;18.20;68.30
23291;DHT22;11814;44.686;10.842;2023-02-18T12:13:38;18.00;67.80
23291;DHT22;11814;44.686;10.842;2023-02-18T12:16:21;17.70;68.50
23291;DHT22;11814;44.686;10.842;2023-02-18T12:36:12;17.60;70.10
23291;DHT22;11814;44.686;10.842;2023-02-18T12:47:30;17.50;69.70
23291;DHT22;11814;44.686;10.842;2023-02-18T12:58:10;17.60;69.10
23291;DHT22;11814;44.686;10.842;2023-02-18T13:06:51;17.70;69.30
23291;DHT22;11814;44.686;10.842;2023-02-18T13:09:54;17.70;69.10
23291;DHT22;11814;44.686;10.842;2023-02-18T13:12:47;17.50;69.40
23291;DHT22;11814;44.686;10.842;2023-02-18T13:15:27;17.40;69.60
23291;DHT22;11814;44.686;10.842;2023-02-18T13:17:57;17.20;69.90
23291;DHT22;11814;44.686;10.842;2023-02-18T13:23:15;17.10;70.60
23291;DHT22;11814;44.686;10.842;2023-02-18T13:25:42;17.10;70.70
23291;DHT22;11814;44.686;10.842;2023-02-18T13:28:19;17.20;70.90
23291;DHT22;11814;44.686;10.842;2023-02-18T13:36:37;17.30;70.50
23291;DHT22;11814;44.686;10.842;2023-02-18T13:39:11;17.30;70.40
23291;DHT22;11814;44.686;10.842;2023-02-18T13:41:43;17.30;70.20
23291;DHT22;11814;44.686;10.842;2023-02-18T13:46:57;17.20;70.60
23291;DHT22;11814;44.686;10.842;2023-02-18T13:49:26;17.20;70.60
23291;DHT22;11814;44.686;10.842;2023-02-18T13:51:57;17.20;70.60
23291;DHT22;11814;44.686;10.842;2023-02-18T13:57:26;17.10;70.50
23291;DHT22;11814;44.686;10.842;2023-02-18T13:59:58;17.00;70.70
23291;DHT22;11814;44.686;10.842;2023-02-18T14:04:57;17.10;70.90
23291;DHT22;11814;44.686;10.842;2023-02-18T14:07:48;17.00;71.00
23291;DHT22;11814;44.686;10.842;2023-02-18T14:13:19;16.80;71.30
23291;DHT22;11814;44.686;10.842;2023-02-18T14:15:53;16.70;71.50
23291;DHT22;11814;44.686;10.842;2023-02-18T14:18:54;16.60;71.90
23291;DHT22;11814;44.686;10.842;2023-02-18T14:21:22;16.70;72.20
23291;DHT22;11814;44.686;10.842;2023-02-18T14:24:01;16.80;72.40
23291;DHT22;11814;44.686;10.842;2023-02-18T14:26:45;16.80;72.50
23291;DHT22;11814;44.686;10.842;2023-02-18T14:29:26;16.80;72.50
23291;DHT22;11814;44.686;10.842;2023-02-18T14:32:08;16.80;72.50
23291;DHT22;11814;44.686;10.842;2023-02-18T14:35:07;16.80;72.60
23291;DHT22;11814;44.686;10.842;2023-02-18T14:51:47;16.30;73.20
23291;DHT22;11814;44.686;10.842;2023-02-18T14:54:19;16.40;73.60
23291;DHT22;11814;44.686;10.842;2023-02-18T14:59:27;16.50;73.50
23291;DHT22;11814;44.686;10.842;2023-02-18T15:01:55;16.60;73.30
23291;DHT22;11814;44.686;10.842;2023-02-18T15:04:23;16.60;72.90
23291;DHT22;11814;44.686;10.842;2023-02-18T15:07:01;16.50;72.80
23291;DHT22;11814;44.686;10.842;2023-02-18T15:09:28;16.40;73.00
23291;DHT22;11814;44.686;10.842;2023-02-18T15:12:04;16.50;73.20
23291;DHT22;11814;44.686;10.842;2023-02-18T15:14:39;16.50;73.10
23291;DHT22;11814;44.686;10.842;2023-02-18T15:17:14;16.50;73.00
23291;DHT22;11814;44.686;10.842;2023-02-18T15:19:43;16.50;73.00
23291;DHT22;11814;44.686;10.842;2023-02-18T15:22:21;16.40;74.00
23291;DHT22;11814;44.686;10.842;2023-02-18T15:24:48;16.50;73.40
23291;DHT22;11814;44.686;10.842;2023-02-18T15:27:16;16.40;73.10
23291;DHT22;11814;44.686;10.842;2023-02-18T15:29:43;16.30;73.40
23291;DHT22;11814;44.686;10.842;2023-02-18T15:32:21;16.30;73.80
23291;DHT22;11814;44.686;10.842;2023-02-18T15:34:58;16.30;73.90
23291;DHT22;11814;44.686;10.842;2023-02-18T15:37:26;16.20;73.70
23291;DHT22;11814;44.686;10.842;2023-02-18T15:39:52;16.20;74.00
23291;DHT22;11814;44.686;10.842;2023-02-18T15:44:54;16.00;74.40
23291;DHT22;11814;44.686;10.842;2023-02-18T15:47:20;16.00;74.60
23291;DHT22;11814;44.686;10.842;2023-02-18T15:49:53;16.00;74.80
23291;DHT22;11814;44.686;10.842;2023-02-18T15:52:29;15.90;75.00
23291;DHT22;11814;44.686;10.842;2023-02-18T15:55:01;15.80;75.10
23291;DHT22;11814;44.686;10.842;2023-02-18T15:57:28;15.70;75.50
23291;DHT22;11814;44.686;10.842;2023-02-18T16:00:12;15.70;75.60
23291;DHT22;11814;44.686;10.842;2023-02-18T16:02:56;15.60;75.90
23291;DHT22;11814;44.686;10.842;2023-02-18T16:05:27;15.70;76.10
23291;DHT22;11814;44.686;10.842;2023-02-18T16:08:00;15.60;76.30
23291;DHT22;11814;44.686;10.842;2023-02-18T16:13:02;15.40;76.80
23291;DHT22;11814;44.686;10.842;2023-02-18T16:15:31;15.30;77.10
23291;DHT22;11814;44.686;10.842;2023-02-18T16:18:01;15.30;77.50
23291;DHT22;11814;44.686;10.842;2023-02-18T16:20:36;15.20;77.70
23291;DHT22;11814;44.686;10.842;2023-02-18T16:23:10;15.10;78.00
23291;DHT22;11814;44.686;10.842;2023-02-18T16:25:49;15.10;78.20
23291;DHT22;11814;44.686;10.842;2023-02-18T16:28:30;15.00;78.40
23291;DHT22;11814;44.686;10.842;2023-02-18T16:30:57;15.00;78.80
23291;DHT22;11814;44.686;10.842;2023-02-18T16:33:24;14.90;78.90
23291;DHT22;11814;44.686;10.842;2023-02-18T16:35:49;14.90;79.20
23291;DHT22;11814;44.686;10.842;2023-02-18T16:38:22;14.80;79.30
23291;DHT22;11814;44.686;10.842;2023-02-18T16:40:49;14.80;79.60
23291;DHT22;11814;44.686;10.842;2023-02-18T16:43:16;14.70;79.90
23291;DHT22;11814;44.686;10.842;2023-02-18T16:45:56;14.70;80.10
23291;DHT22;11814;44.686;10.842;2023-02-18T16:50:49;14.60;80.40
23291;DHT22;11814;44.686;10.842;2023-02-18T16:53:16;14.50;80.60
23291;DHT22;11814;44.686;10.842;2023-02-18T16:55:45;14.40;80.80
23291;DHT22;11814;44.686;10.842;2023-02-18T16:58:11;14.40;81.10
23291;DHT22;11814;44.686;10.842;2023-02-18T17:00:38;14.40;81.50
23291;DHT22;11814;44.686;10.842;2023-02-18T17:03:05;14.30;81.60
23291;DHT22;11814;44.686;10.842;2023-02-18T17:05:33;14.30;81.90
23291;DHT22;11814;44.686;10.842;2023-02-18T17:08:18;14.20;82.10
23291;DHT22;11814;44.686;10.842;2023-02-18T17:10:54;14.10;82.40
23291;DHT22;11814;44.686;10.842;2023-02-18T17:13:25;14.00;83.40
23291;DHT22;11814;44.686;10.842;2023-02-18T17:15:54;13.90;83.10
23291;DHT22;11814;44.686;10.842;2023-02-18T17:18:23;13.90;83.40
23291;DHT22;11814;44.686;10.842;2023-02-18T17:20:50;13.80;83.70
23291;DHT22;11814;44.686;10.842;2023-02-18T17:23:20;13.80;84.00
23291;DHT22;11814;44.686;10.842;2023-02-18T17:25:48;13.70;84.20
23291;DHT22;11814;44.686;10.842;2023-02-18T17:28:15;13.70;84.40
23291;DHT22;11814;44.686;10.842;2023-02-18T17:30:48;13.70;84.60
23291;DHT22;11814;44.686;10.842;2023-02-18T17:33:17;13.60;84.80
23291;DHT22;11814;44.686;10.842;2023-02-18T17:35:48;13.60;85.00
23291;DHT22;11814;44.686;10.842;2023-02-18T17:38:36;13.50;85.30
23291;DHT22;11814;44.686;10.842;2023-02-18T17:41:02;13.40;85.50
23291;DHT22;11814;44.686;10.842;2023-02-18T17:43:29;13.40;85.90
23291;DHT22;11814;44.686;10.842;2023-02-18T17:45:56;13.30;86.20
23291;DHT22;11814;44.686;10.842;2023-02-18T17:48:23;13.30;86.50
23291;DHT22;11814;44.686;10.842;2023-02-18T17:50:51;13.30;86.60
23291;DHT22;11814;44.686;10.842;2023-02-18T17:53:18;13.20;86.70
23291;DHT22;11814;44.686;10.842;2023-02-18T17:55:46;13.20;86.90
23291;DHT22;11814;44.686;10.842;2023-02-18T17:58:15;13.10;87.10
23291;DHT22;11814;44.686;10.842;2023-02-18T18:00:48;13.10;87.50
23291;DHT22;11814;44.686;10.842;2023-02-18T18:03:15;13.10;87.70